TimeCST,TemperatureF,Dew PointF,Humidity,Sea Level PressureIn,VisibilityMPH,Wind Direction,Wind SpeedMPH,Gust SpeedMPH,PrecipitationIn,Events,Conditions,WindDirDegrees,DateUTC
12:15 AM,33.8,19.0,55,30.35,10.0,NNE,10.4,-,N/A,,Clear,20,2013-02-01 06:15:00
12:35 AM,33.1,18.5,55,30.34,10.0,North,11.5,17.3,N/A,,Clear,10,2013-02-01 06:35:00
1:15 AM,32.0,17.6,55,30.35,10.0,North,5.8,-,N/A,,Clear,360,2013-02-01 07:15:00
1:35 AM,31.5,18.1,58,30.35,10.0,NNE,3.5,-,N/A,,Clear,20,2013-02-01 07:35:00
1:55 AM,30.4,18.7,62,30.36,10.0,North,6.9,-,N/A,,Clear,350,2013-02-01 07:55:00
2:15 AM,30.0,18.5,62,30.37,10.0,North,6.9,-,N/A,,Clear,350,2013-02-01 08:15:00
2:35 AM,30.0,17.4,59,30.38,10.0,North,5.8,-,N/A,,Clear,350,2013-02-01 08:35:00
2:55 AM,29.8,16.2,57,30.38,10.0,North,5.8,-,N/A,,Clear,360,2013-02-01 08:55:00
3:15 AM,29.3,16.2,58,30.38,10.0,North,8.1,-,N/A,,Clear,360,2013-02-01 09:15:00
3:35 AM,29.1,15.8,58,30.39,10.0,North,6.9,-,N/A,,Clear,360,2013-02-01 09:35:00
3:55 AM,28.9,14.9,56,30.39,10.0,North,5.8,-,N/A,,Clear,360,2013-02-01 09:55:00
4:15 AM,28.4,14.5,56,30.39,10.0,North,4.6,-,N/A,,Clear,10,2013-02-01 10:15:00
4:35 AM,28.0,14.4,57,30.40,10.0,North,5.8,-,N/A,,Clear,360,2013-02-01 10:35:00
4:55 AM,27.5,14.4,58,30.39,10.0,North,6.9,-,N/A,,Clear,350,2013-02-01 10:55:00
5:15 AM,27.3,14.0,57,30.39,10.0,North,6.9,-,N/A,,Clear,360,2013-02-01 11:15:00
5:35 AM,27.0,14.0,58,30.39,10.0,North,4.6,-,N/A,,Clear,10,2013-02-01 11:35:00
6:15 AM,26.4,13.5,58,30.40,10.0,North,3.5,-,N/A,,Clear,10,2013-02-01 12:15:00
6:35 AM,26.6,13.1,57,30.41,10.0,Calm,Calm,-,N/A,,Clear,0,2013-02-01 12:35:00
6:55 AM,26.2,13.8,59,30.41,10.0,NNE,4.6,-,N/A,,Clear,30,2013-02-01 12:55:00
7:15 AM,26.2,13.1,58,30.41,10.0,NNE,4.6,-,N/A,,Clear,30,2013-02-01 13:15:00
7:35 AM,26.2,12.9,57,30.41,10.0,North,-9999.0,-,N/A,,Clear,0,2013-02-01 13:35:00
8:15 AM,28.6,13.6,54,30.42,10.0,NE,4.6,-,N/A,,Clear,40,2013-02-01 14:15:00
8:35 AM,30.2,14.4,52,30.42,10.0,ENE,5.8,-,N/A,,Clear,60,2013-02-01 14:35:00
8:55 AM,32.4,15.1,49,30.42,10.0,East,4.6,-,N/A,,Clear,80,2013-02-01 14:55:00
9:15 AM,35.8,15.6,44,30.42,10.0,ESE,9.2,-,N/A,,Clear,120,2013-02-01 15:15:00
9:35 AM,36.7,16.5,44,30.41,10.0,ESE,9.2,-,N/A,,Clear,120,2013-02-01 15:35:00
9:55 AM,38.7,18.1,44,30.42,10.0,ESE,8.1,-,N/A,,Clear,120,2013-02-01 15:55:00
10:15 AM,39.4,18.5,43,30.42,10.0,ESE,9.2,-,N/A,,Clear,120,2013-02-01 16:15:00
10:35 AM,40.6,19.0,42,30.42,10.0,ESE,12.7,-,N/A,,Clear,110,2013-02-01 16:35:00
10:55 AM,41.5,19.6,41,30.41,10.0,East,11.5,17.3,N/A,,Clear,90,2013-02-01 16:55:00
11:15 AM,42.8,19.0,39,30.40,10.0,East,9.2,-,N/A,,Clear,100,2013-02-01 17:15:00
11:35 AM,43.9,18.9,37,30.39,10.0,ESE,11.5,16.1,N/A,,Clear,110,2013-02-01 17:35:00
12:15 PM,45.5,20.1,36,30.36,10.0,East,8.1,-,N/A,,Clear,90,2013-02-01 18:15:00
12:35 PM,46.9,20.3,35,30.36,10.0,SSE,6.9,-,N/A,,Clear,150,2013-02-01 18:35:00
1:15 PM,48.2,18.3,31,30.33,10.0,SE,13.8,17.3,N/A,,Clear,140,2013-02-01 19:15:00
1:35 PM,48.7,18.5,30,30.31,10.0,SE,10.4,16.1,N/A,,Clear,140,2013-02-01 19:35:00
1:55 PM,50.0,19.0,29,30.30,10.0,ESE,10.4,16.1,N/A,,Clear,110,2013-02-01 19:55:00
2:15 PM,50.5,19.6,30,30.29,10.0,East,11.5,17.3,N/A,,Clear,100,2013-02-01 20:15:00
2:35 PM,50.7,19.8,30,30.29,10.0,SE,10.4,18.4,N/A,,Clear,140,2013-02-01 20:35:00
2:55 PM,51.6,20.3,29,30.28,10.0,SE,9.2,-,N/A,,Clear,140,2013-02-01 20:55:00
3:15 PM,52.0,21.0,30,30.27,10.0,SE,10.4,16.1,N/A,,Clear,130,2013-02-01 21:15:00
3:35 PM,52.3,21.2,30,30.25,10.0,SE,12.7,-,N/A,,Clear,130,2013-02-01 21:35:00
3:55 PM,52.2,20.7,29,30.25,10.0,SE,10.4,18.4,N/A,,Clear,130,2013-02-01 21:55:00
4:15 PM,52.2,20.3,29,30.25,10.0,SE,11.5,17.3,N/A,,Clear,130,2013-02-01 22:15:00
4:35 PM,51.6,21.2,30,30.23,10.0,SE,15.0,21.9,N/A,,Clear,140,2013-02-01 22:35:00
4:55 PM,50.7,20.3,30,30.23,10.0,SE,10.4,18.4,N/A,,Clear,140,2013-02-01 22:55:00
5:15 PM,49.8,20.3,31,30.21,10.0,SE,10.4,18.4,N/A,,Clear,140,2013-02-01 23:15:00
5:35 PM,48.2,20.7,34,30.22,10.0,SE,9.2,-,N/A,,Clear,130,2013-02-01 23:35:00
5:55 PM,46.4,20.8,36,30.21,10.0,ESE,8.1,-,N/A,,Clear,120,2013-02-01 23:55:00
6:15 PM,44.1,21.4,41,30.21,10.0,ESE,8.1,-,N/A,,Clear,120,2013-02-02 00:15:00
6:35 PM,43.7,21.2,41,30.21,10.0,ESE,9.2,-,N/A,,Clear,120,2013-02-02 00:35:00
6:55 PM,42.3,21.7,44,30.21,10.0,ESE,6.9,-,N/A,,Clear,110,2013-02-02 00:55:00
7:15 PM,42.1,21.7,44,30.22,10.0,East,8.1,-,N/A,,Clear,100,2013-02-02 01:15:00
7:35 PM,41.7,22.3,46,30.22,10.0,East,8.1,-,N/A,,Clear,100,2013-02-02 01:35:00
7:55 PM,41.2,22.6,48,30.21,10.0,ESE,9.2,-,N/A,,Clear,110,2013-02-02 01:55:00
8:15 PM,41.0,22.1,47,30.22,10.0,ESE,8.1,-,N/A,,Clear,110,2013-02-02 02:15:00
8:35 PM,41.0,21.9,47,30.22,10.0,East,9.2,-,N/A,,Clear,100,2013-02-02 02:35:00
8:55 PM,40.1,21.9,48,30.22,10.0,ESE,9.2,-,N/A,,Clear,110,2013-02-02 02:55:00
9:15 PM,39.6,21.9,49,30.23,10.0,ESE,9.2,-,N/A,,Clear,110,2013-02-02 03:15:00
9:35 PM,39.6,21.6,49,30.23,10.0,ESE,9.2,-,N/A,,Clear,110,2013-02-02 03:35:00
9:55 PM,39.2,21.2,49,30.23,10.0,ESE,8.1,-,N/A,,Clear,120,2013-02-02 03:55:00
10:15 PM,39.0,21.6,50,30.22,10.0,ESE,5.8,-,N/A,,Clear,120,2013-02-02 04:15:00
10:35 PM,38.3,21.6,51,30.22,10.0,ESE,6.9,-,N/A,,Clear,110,2013-02-02 04:35:00
10:55 PM,37.6,21.7,53,30.22,10.0,ESE,5.8,-,N/A,,Clear,110,2013-02-02 04:55:00
11:15 PM,37.8,21.6,52,30.21,10.0,East,4.6,-,N/A,,Clear,100,2013-02-02 05:15:00
11:35 PM,37.8,21.9,53,30.21,10.0,East,5.8,-,N/A,,Clear,100,2013-02-02 05:35:00
11:55 PM,37.8,22.1,53,30.20,10.0,East,6.9,-,N/A,,Clear,100,2013-02-02 05:55:00